createdAt,value
2023-03-16T00:02:10.273Z,101216.59
2023-03-16T00:05:16.557Z,101229.34
2023-03-16T00:08:21.703Z,101235.03
2023-03-16T00:11:27.209Z,101240.19
2023-03-16T00:14:35.842Z,101244.44
2023-03-16T00:17:41.033Z,101251.19
2023-03-16T00:20:46.202Z,101247.16
2023-03-16T00:23:53.549Z,101246.72
2023-03-16T00:26:58.999Z,101259.47
2023-03-16T00:30:06.256Z,101251.69
2023-03-16T00:33:13.676Z,101267.72
2023-03-16T00:36:19.043Z,101275.22
2023-03-16T00:39:24.576Z,101283.44
2023-03-16T00:42:31.685Z,101286.19
2023-03-16T00:45:39.027Z,101282.53
2023-03-16T00:48:45.927Z,101280.22
2023-03-16T00:51:51.312Z,101289.69
2023-03-16T00:54:58.464Z,101290.00
2023-03-16T00:58:05.149Z,101291.59
2023-03-16T01:01:14.970Z,101297.66
2023-03-16T01:04:20.629Z,101302.91
2023-03-16T01:07:25.757Z,101303.31
2023-03-16T01:10:30.882Z,101311.50
2023-03-16T01:13:36.093Z,101313.44
2023-03-16T01:16:46.208Z,101326.72
2023-03-16T01:19:51.576Z,101329.31
2023-03-16T01:22:56.687Z,101330.94
2023-03-16T01:26:02.371Z,101347.47
2023-03-16T01:29:08.030Z,101341.47
2023-03-16T01:32:14.987Z,101343.78
2023-03-16T01:35:21.835Z,101355.47
2023-03-16T01:38:28.626Z,101360.13
2023-03-16T01:41:33.896Z,101358.88
2023-03-16T01:44:57.900Z,101372.31
2023-03-16T01:48:10.629Z,101379.03
2023-03-16T01:51:21.161Z,101385.78
2023-03-16T01:54:30.122Z,101386.53
2023-03-16T01:57:37.161Z,101402.34
2023-03-16T02:00:45.784Z,101410.59
2023-03-16T02:04:06.849Z,101409.63
2023-03-16T02:07:17.038Z,101411.13
2023-03-16T02:10:22.957Z,101411.94
2023-03-16T02:13:29.630Z,101420.25
2023-03-16T02:16:34.986Z,101424.13
2023-03-16T02:19:49.128Z,101430.00
2023-03-16T02:22:55.628Z,101436.00
2023-03-16T02:26:05.090Z,101439.94
2023-03-16T02:29:21.941Z,101435.78
2023-03-16T02:32:32.324Z,101440.78
2023-03-16T02:35:39.977Z,101447.50
2023-03-16T02:38:46.766Z,101456.50
2023-03-16T02:41:54.785Z,101466.66
2023-03-16T02:45:00.894Z,101475.03
2023-03-16T02:48:19.683Z,101472.94
2023-03-16T02:51:24.823Z,101475.94
2023-03-16T02:54:30.164Z,101481.94
2023-03-16T02:57:35.437Z,101479.63
2023-03-16T03:00:46.572Z,101486.13
2023-03-16T03:03:56.087Z,101482.88
2023-03-16T03:07:05.012Z,101489.66
2023-03-16T03:10:22.413Z,101496.28
2023-03-16T03:13:27.535Z,101490.38
2023-03-16T03:16:33.122Z,101498.97
2023-03-16T03:19:39.836Z,101506.34
2023-03-16T03:22:46.234Z,101516.81
2023-03-16T03:25:52.935Z,101525.34
2023-03-16T03:28:58.137Z,101538.53
2023-03-16T03:32:03.362Z,101540.88
2023-03-16T03:35:12.463Z,101531.72
2023-03-16T03:38:17.917Z,101536.59
2023-03-16T03:41:23.867Z,101538.53
2023-03-16T03:44:34.670Z,101539.47
2023-03-16T03:47:40.187Z,101553.91
2023-03-16T03:50:48.719Z,101549.59
2023-03-16T03:54:16.974Z,101558.78
2023-03-16T03:57:28.088Z,101558.03
2023-03-16T04:00:33.368Z,101561.78
2023-03-16T04:03:38.808Z,101571.81
2023-03-16T04:06:47.081Z,101570.06
2023-03-16T04:09:52.172Z,101579.84
2023-03-16T04:13:05.734Z,101569.22
2023-03-16T04:16:16.545Z,101587.75
2023-03-16T04:19:24.906Z,101584.34
2023-03-16T04:22:34.264Z,101591.91
2023-03-16T04:25:42.349Z,101587.59
2023-03-16T04:28:48.331Z,101593.19
2023-03-16T04:31:56.768Z,101606.66
2023-03-16T04:35:03.211Z,101603.09
2023-03-16T04:38:23.527Z,101600.91
2023-03-16T04:41:33.518Z,101601.09
2023-03-16T04:44:49.265Z,101604.47
2023-03-16T04:47:55.035Z,101616.38
2023-03-16T04:51:03.927Z,101616.59
2023-03-16T04:54:14.744Z,101615.16
2023-03-16T04:57:21.727Z,101628.16
2023-03-16T05:00:30.818Z,101625.88
2023-03-16T05:03:44.780Z,101624.41
2023-03-16T05:06:49.898Z,101638.13
2023-03-16T05:10:00.235Z,101645.31
2023-03-16T05:13:05.504Z,101636.31
2023-03-16T05:16:12.901Z,101648.72
2023-03-16T05:19:20.000Z,101657.84
2023-03-16T05:22:25.872Z,101656.44
2023-03-16T05:26:04.568Z,101671.59
2023-03-16T05:29:14.167Z,101667.91
2023-03-16T05:32:19.343Z,101671.25
2023-03-16T05:35:24.843Z,101673.75
2023-03-16T05:38:34.296Z,101687.22
2023-03-16T05:41:41.181Z,101686.59
2023-03-16T05:45:10.424Z,101690.06
2023-03-16T05:48:25.836Z,101683.53
2023-03-16T05:51:34.572Z,101690.19
2023-03-16T05:54:43.083Z,101689.88
2023-03-16T05:57:51.465Z,101691.41
2023-03-16T06:00:57.147Z,101706.63
2023-03-16T06:04:07.495Z,101701.97
2023-03-16T06:07:17.294Z,101702.72
2023-03-16T06:10:23.272Z,101714.88
2023-03-16T06:13:30.190Z,101722.50
2023-03-16T06:16:36.074Z,101719.94
2023-03-16T06:19:42.038Z,101723.94
2023-03-16T06:22:48.043Z,101738.84
2023-03-16T06:25:55.304Z,101738.84
2023-03-16T06:29:05.190Z,101751.50
2023-03-16T06:32:14.439Z,101751.63
2023-03-16T06:35:20.235Z,101765.13
2023-03-16T06:38:41.295Z,101766.00
2023-03-16T06:42:01.240Z,101766.53
2023-03-16T06:45:09.351Z,101763.06
2023-03-16T06:48:16.523Z,101773.16
2023-03-16T06:51:22.985Z,101773.91
2023-03-16T06:54:29.729Z,101779.41
2023-03-16T06:57:35.023Z,101783.44
2023-03-16T07:00:42.289Z,101794.31
2023-03-16T07:03:47.572Z,101798.13
2023-03-16T07:06:58.899Z,101807.22
2023-03-16T07:10:06.145Z,101824.34
2023-03-16T07:13:11.658Z,101825.56
2023-03-16T07:16:18.411Z,101819.00
2023-03-16T07:19:23.774Z,101822.09
2023-03-16T07:22:30.017Z,101829.94
2023-03-16T07:25:35.383Z,101834.22
2023-03-16T07:28:42.141Z,101838.28
2023-03-16T07:31:49.524Z,101845.66
2023-03-16T07:34:59.322Z,101847.91
2023-03-16T07:38:10.862Z,101843.03
2023-03-16T07:41:16.607Z,101851.63
2023-03-16T07:44:21.894Z,101854.63
2023-03-16T07:47:30.689Z,101850.00
2023-03-16T07:50:40.685Z,101853.66
2023-03-16T07:53:46.108Z,101863.47
2023-03-16T07:56:58.472Z,101866.94
2023-03-16T08:00:17.507Z,101867.13
2023-03-16T08:03:26.110Z,101875.34
2023-03-16T08:06:33.395Z,101884.91
2023-03-16T08:09:41.482Z,101876.59
2023-03-16T08:12:49.071Z,101890.22
2023-03-16T08:15:58.670Z,101892.19
2023-03-16T08:19:17.455Z,101896.75
2023-03-16T08:22:22.670Z,101899.34
2023-03-16T08:25:27.968Z,101905.78
2023-03-16T08:28:42.136Z,101908.69
2023-03-16T08:31:50.119Z,101917.41
2023-03-16T08:35:07.727Z,101918.34
2023-03-16T08:38:17.198Z,101928.94
2023-03-16T08:41:22.889Z,101925.22
2023-03-16T08:44:29.952Z,101926.47
2023-03-16T08:47:35.266Z,101930.44
2023-03-16T08:50:43.379Z,101934.22
2023-03-16T08:53:48.968Z,101942.91
2023-03-16T08:56:54.254Z,101938.97
2023-03-16T08:59:59.490Z,101951.53
2023-03-16T09:03:05.035Z,101952.25
2023-03-16T09:06:13.410Z,101960.72
2023-03-16T09:09:19.619Z,101967.63
2023-03-16T09:12:25.138Z,101977.41
2023-03-16T09:15:31.556Z,101975.38
2023-03-16T09:18:37.622Z,101974.50
2023-03-16T09:21:46.486Z,101984.97
2023-03-16T09:24:52.438Z,101985.59
2023-03-16T09:27:57.675Z,101986.59
2023-03-16T09:31:04.010Z,101984.09
2023-03-16T09:34:09.556Z,101987.84
2023-03-16T09:37:16.561Z,101999.59
2023-03-16T09:40:24.818Z,101987.28
2023-03-16T09:43:52.682Z,101995.00
2023-03-16T09:46:59.140Z,101995.84
2023-03-16T09:50:08.729Z,102009.63
2023-03-16T09:53:24.279Z,102008.50
2023-03-16T09:56:32.747Z,102013.00
2023-03-16T09:59:38.091Z,102023.09
2023-03-16T10:03:08.647Z,102015.84
2023-03-16T10:06:15.156Z,102022.00
2023-03-16T10:09:30.194Z,102030.53
2023-03-16T10:12:41.443Z,102045.53
2023-03-16T10:15:48.324Z,102040.56
2023-03-16T10:18:58.927Z,102045.53
2023-03-16T10:22:11.252Z,102044.53
2023-03-16T10:25:23.864Z,102047.38
2023-03-16T10:28:32.251Z,102043.56
2023-03-16T10:31:38.492Z,102048.03
2023-03-16T10:34:44.923Z,102054.91
2023-03-16T10:37:50.386Z,102056.34
2023-03-16T10:40:57.965Z,102061.81
2023-03-16T10:44:08.630Z,102057.44
2023-03-16T10:47:20.091Z,102060.13
2023-03-16T10:50:27.826Z,102057.91
2023-03-16T10:53:35.925Z,102062.06
2023-03-16T10:56:42.722Z,102066.50
2023-03-16T10:59:51.252Z,102071.72
2023-03-16T11:02:57.968Z,102064.94
2023-03-16T11:06:04.968Z,102074.22
2023-03-16T11:09:19.732Z,102073.50
2023-03-16T11:12:29.072Z,102082.19
2023-03-16T11:15:42.386Z,102088.78
2023-03-16T11:18:48.995Z,102084.06
2023-03-16T11:21:57.775Z,102091.44
2023-03-16T11:25:06.601Z,102090.78
2023-03-16T11:28:18.614Z,102090.72
2023-03-16T11:31:30.348Z,102093.63
2023-03-16T11:34:36.569Z,102094.41
2023-03-16T11:37:58.317Z,102107.03
2023-03-16T11:41:33.729Z,102102.38
2023-03-16T11:44:45.119Z,102112.53
2023-03-16T11:48:08.329Z,102112.38
2023-03-16T11:51:20.615Z,102113.19
2023-03-16T11:54:41.251Z,102114.00
2023-03-16T11:57:52.498Z,102121.13
2023-03-16T12:01:08.769Z,102117.56
2023-03-16T12:04:37.017Z,102120.38
2023-03-16T12:07:51.476Z,102116.94
2023-03-16T12:11:02.432Z,102119.34
2023-03-16T12:14:16.617Z,102118.00
2023-03-16T12:17:26.754Z,102127.25
2023-03-16T12:20:35.927Z,102128.81
2023-03-16T12:23:43.415Z,102130.66
2023-03-16T12:26:49.709Z,102138.09
2023-03-16T12:30:01.915Z,102136.81
2023-03-16T12:33:12.943Z,102131.88
2023-03-16T12:37:01.054Z,102134.56
2023-03-16T12:40:16.879Z,102136.16
2023-03-16T12:43:38.631Z,102149.72
2023-03-16T12:46:56.287Z,102141.38
2023-03-16T12:50:09.099Z,102139.06
2023-03-16T12:53:40.016Z,102156.69
2023-03-16T12:56:48.126Z,102151.28
2023-03-16T13:00:00.324Z,102163.13
2023-03-16T13:03:06.875Z,102156.41
2023-03-16T13:06:22.231Z,102160.81
2023-03-16T13:09:31.915Z,102167.59
2023-03-16T13:12:41.793Z,102159.91
2023-03-16T13:15:49.698Z,102157.78
2023-03-16T13:18:54.968Z,102157.69
2023-03-16T13:22:21.132Z,102166.00
2023-03-16T13:25:40.819Z,102154.50
2023-03-16T13:28:51.410Z,102174.34
2023-03-16T13:31:58.073Z,102163.59
2023-03-16T13:35:04.493Z,102170.16
2023-03-16T13:38:17.568Z,102182.97
2023-03-16T13:41:23.282Z,102177.91
2023-03-16T13:44:29.562Z,102176.03
2023-03-16T13:47:34.749Z,102168.50
2023-03-16T13:50:41.423Z,102187.56
2023-03-16T13:53:48.620Z,102180.28
2023-03-16T13:56:55.188Z,102179.94
2023-03-16T14:00:06.048Z,102180.59
2023-03-16T14:03:17.874Z,102183.28
2023-03-16T14:06:26.914Z,102176.94
2023-03-16T14:09:36.536Z,102185.50
2023-03-16T14:12:42.063Z,102194.66
2023-03-16T14:15:47.352Z,102184.22
2023-03-16T14:18:56.810Z,102188.03
2023-03-16T14:22:05.449Z,102187.88
2023-03-16T14:25:22.540Z,102195.84
2023-03-16T14:28:32.449Z,102193.97
2023-03-16T14:31:41.849Z,102192.75
2023-03-16T14:34:51.996Z,102198.19
2023-03-16T14:37:57.544Z,102183.69
2023-03-16T14:41:09.473Z,102184.16
2023-03-16T14:44:21.680Z,102197.44
2023-03-16T14:47:29.454Z,102205.78
2023-03-16T14:50:35.130Z,102198.13
2023-03-16T14:53:40.258Z,102202.09
2023-03-16T14:56:50.534Z,102201.34
2023-03-16T14:59:55.974Z,102200.38
2023-03-16T15:03:03.921Z,102203.03
2023-03-16T15:06:08.846Z,102192.84
2023-03-16T15:09:44.347Z,102208.47
2023-03-16T15:12:54.293Z,102197.75
2023-03-16T15:15:59.681Z,102215.34
2023-03-16T15:19:05.270Z,102207.72
2023-03-16T15:22:13.692Z,102205.03
2023-03-16T15:25:28.715Z,102204.25
2023-03-16T15:28:35.873Z,102209.44
2023-03-16T15:31:41.209Z,102210.16
2023-03-16T15:34:47.176Z,102212.69
2023-03-16T15:37:52.490Z,102215.97
2023-03-16T15:40:57.686Z,102219.94
2023-03-16T15:44:04.312Z,102227.50
2023-03-16T15:47:11.038Z,102224.22
2023-03-16T15:50:18.044Z,102230.28
2023-03-16T15:53:31.067Z,102227.66
2023-03-16T15:56:52.728Z,102228.34
2023-03-16T16:00:01.591Z,102228.41
2023-03-16T16:03:08.155Z,102224.09
2023-03-16T16:06:14.075Z,102227.09
2023-03-16T16:09:19.144Z,102224.47
2023-03-16T16:12:27.096Z,102232.19
2023-03-16T16:15:37.089Z,102233.88
2023-03-16T16:18:42.877Z,102247.25
2023-03-16T16:21:48.064Z,102245.47
2023-03-16T16:24:53.276Z,102256.31
2023-03-16T16:27:58.472Z,102251.94
2023-03-16T16:31:13.156Z,102251.84
2023-03-16T16:34:21.219Z,102256.88
2023-03-16T16:37:26.443Z,102270.06
2023-03-16T16:40:38.256Z,102277.22
2023-03-16T16:43:45.337Z,102273.22
2023-03-16T16:46:52.994Z,102287.56
2023-03-16T16:49:58.189Z,102283.84
2023-03-16T16:53:03.979Z,102294.63
2023-03-16T16:56:15.529Z,102294.56
2023-03-16T16:59:22.889Z,102299.69
2023-03-16T17:02:37.913Z,102297.78
2023-03-16T17:05:44.183Z,102301.44
2023-03-16T17:08:50.352Z,102295.66
2023-03-16T17:11:56.266Z,102300.03
2023-03-16T17:15:01.527Z,102298.28
2023-03-16T17:18:13.263Z,102298.03
2023-03-16T17:21:20.605Z,102311.53
2023-03-16T17:24:26.048Z,102302.72
2023-03-16T17:27:33.126Z,102307.06
2023-03-16T17:30:38.553Z,102312.84
2023-03-16T17:33:46.205Z,102314.47
2023-03-16T17:36:52.436Z,102318.88
2023-03-16T17:39:58.355Z,102320.16
2023-03-16T17:43:03.636Z,102330.25
2023-03-16T17:46:10.370Z,102330.63
2023-03-16T17:49:18.313Z,102330.44
2023-03-16T17:52:25.505Z,102330.56
2023-03-16T17:55:30.805Z,102331.56
2023-03-16T17:58:36.207Z,102338.53
2023-03-16T18:01:41.647Z,102337.75
2023-03-16T18:04:48.480Z,102338.38
2023-03-16T18:07:54.728Z,102337.41
2023-03-16T18:11:01.690Z,102335.06
2023-03-16T18:14:11.454Z,102336.69
2023-03-16T18:17:22.715Z,102342.63
2023-03-16T18:20:33.110Z,102346.34
2023-03-16T18:23:38.763Z,102349.50
2023-03-16T18:26:44.105Z,102347.88
2023-03-16T18:29:49.866Z,102348.59
2023-03-16T18:32:55.535Z,102341.88
2023-03-16T18:36:03.338Z,102340.22
2023-03-16T18:39:18.608Z,102349.69
2023-03-16T18:42:25.904Z,102345.94
2023-03-16T18:45:31.865Z,102350.53
2023-03-16T18:48:37.382Z,102353.09
2023-03-16T18:51:44.955Z,102363.25
2023-03-16T18:54:50.912Z,102362.91
2023-03-16T18:57:57.443Z,102369.94
2023-03-16T19:01:02.969Z,102373.28
2023-03-16T19:04:08.654Z,102376.34
2023-03-16T19:07:20.646Z,102365.94
2023-03-16T19:10:28.058Z,102362.03
2023-03-16T19:13:33.358Z,102370.22
2023-03-16T19:16:38.772Z,102369.19
2023-03-16T19:19:44.949Z,102359.66
2023-03-16T19:22:52.949Z,102365.88
2023-03-16T19:25:59.070Z,102371.19
2023-03-16T19:29:05.167Z,102370.44
2023-03-16T19:32:18.714Z,102375.00
2023-03-16T19:35:36.283Z,102377.84
2023-03-16T19:38:51.780Z,102379.94
2023-03-16T19:41:59.389Z,102382.91
2023-03-16T19:45:05.464Z,102391.16
2023-03-16T19:48:15.902Z,102387.06
2023-03-16T19:51:22.074Z,102393.78
2023-03-16T19:54:32.095Z,102386.31
2023-03-16T19:57:37.737Z,102392.97
2023-03-16T20:00:43.951Z,102386.22
2023-03-16T20:03:50.148Z,102388.97
2023-03-16T20:06:55.544Z,102400.59
2023-03-16T20:10:02.401Z,102395.25
2023-03-16T20:13:07.803Z,102400.28
2023-03-16T20:16:18.858Z,102400.97
2023-03-16T20:19:24.701Z,102398.72
2023-03-16T20:22:30.214Z,102388.84
2023-03-16T20:25:36.754Z,102388.47
2023-03-16T20:28:42.195Z,102382.53
2023-03-16T20:31:47.658Z,102382.53
2023-03-16T20:34:54.123Z,102396.19
2023-03-16T20:37:59.311Z,102382.53
2023-03-16T20:41:07.601Z,102381.72
2023-03-16T20:44:17.127Z,102383.50
2023-03-16T20:47:24.918Z,102381.13
2023-03-16T20:50:31.886Z,102381.97
2023-03-16T20:53:37.194Z,102386.16
2023-03-16T20:56:44.374Z,102369.88
2023-03-16T20:59:51.656Z,102373.25
2023-03-16T21:02:56.986Z,102367.34
2023-03-16T21:06:02.263Z,102377.47
2023-03-16T21:09:08.243Z,102367.19
2023-03-16T21:12:24.307Z,102383.31
2023-03-16T21:15:33.439Z,102381.41
2023-03-16T21:18:38.537Z,102378.78
2023-03-16T21:21:43.867Z,102384.03
2023-03-16T21:24:49.358Z,102383.13
2023-03-16T21:27:57.025Z,102378.88
2023-03-16T21:31:03.107Z,102395.38
2023-03-16T21:34:10.530Z,102390.47
2023-03-16T21:37:16.266Z,102387.56
2023-03-16T21:40:23.183Z,102398.84
2023-03-16T21:43:29.790Z,102394.47
2023-03-16T21:46:34.975Z,102407.88
2023-03-16T21:49:40.194Z,102413.19
2023-03-16T21:52:45.454Z,102406.91
2023-03-16T21:55:51.241Z,102414.19
2023-03-16T21:58:57.671Z,102420.06
2023-03-16T22:02:02.838Z,102416.41
2023-03-16T22:05:36.644Z,102414.47
2023-03-16T22:08:41.743Z,102420.31
2023-03-16T22:11:46.853Z,102420.53
2023-03-16T22:14:53.434Z,102433.41
2023-03-16T22:17:59.154Z,102425.66
2023-03-16T22:21:12.342Z,102421.09
2023-03-16T22:24:19.439Z,102429.59
2023-03-16T22:27:26.218Z,102429.47
2023-03-16T22:30:33.130Z,102435.13
2023-03-16T22:33:39.136Z,102427.16
2023-03-16T22:36:44.412Z,102429.59
2023-03-16T22:39:50.062Z,102439.75
2023-03-16T22:42:56.879Z,102427.44
2023-03-16T22:46:03.445Z,102437.34
2023-03-16T22:49:20.952Z,102442.50
2023-03-16T22:52:29.690Z,102428.91
2023-03-16T22:55:36.877Z,102432.28
2023-03-16T22:58:43.941Z,102438.63
2023-03-16T23:01:51.774Z,102436.84
2023-03-16T23:04:57.693Z,102424.66
2023-03-16T23:08:06.580Z,102435.50
2023-03-16T23:11:17.086Z,102429.00
2023-03-16T23:14:24.208Z,102435.75
2023-03-16T23:17:30.637Z,102432.50
2023-03-16T23:20:35.930Z,102428.88
2023-03-16T23:23:43.057Z,102439.91
2023-03-16T23:26:51.723Z,102426.75
2023-03-16T23:29:56.881Z,102422.22
2023-03-16T23:33:03.517Z,102423.59
2023-03-16T23:36:15.544Z,102428.31
2023-03-16T23:39:20.738Z,102433.13
2023-03-16T23:42:49.052Z,102422.47
2023-03-16T23:46:22.809Z,102427.94
2023-03-16T23:49:32.899Z,102422.41
2023-03-16T23:52:38.166Z,102423.75
2023-03-16T23:55:43.599Z,102420.34
2023-03-16T23:58:48.685Z,102422.53
